Midland, Pennsylvania
Current Conditions -  °F | °C
As of 12:51 PM on Sunday 25 Jan 2015 (Local Time) from KPIT Reporting Station
Light Snow Light Snow  
Wind Chill: 35°   Ceiling: 700
Heat Index: 35°   Visibility: 2mi
Dew Point: 32°   Wind: 0mph
Humidity: 89%   Direction: NA
Pressure: 29.78"   Gusts: NA
Location:  40.63°N, 80.45°W
Report Text: KPIT 251751Z 00000KT 2SM -SN BR BKN007 OVC012 02/00 A2978 RMK AO2 SLP101 P0000 60000 T00170000 10017 20006 50002
Loading
Personal Weather Stations






























Interactive Weather Map New forecast layout! Learn more

10-Day Weather Forecast

Advertisements
Track Severe Weather on mobile